createdAt,value
2022-10-06T00:01:05.465Z,63.40
2022-10-06T00:03:32.505Z,63.20
2022-10-06T00:06:00.639Z,62.80
2022-10-06T00:08:27.801Z,63.10
2022-10-06T00:10:56.096Z,63.10
2022-10-06T00:13:23.705Z,62.90
2022-10-06T00:15:50.660Z,62.90
2022-10-06T00:18:17.603Z,62.80
2022-10-06T00:20:44.542Z,63.10
2022-10-06T00:23:11.598Z,62.80
2022-10-06T00:25:38.750Z,63.00
2022-10-06T00:28:05.681Z,62.90
2022-10-06T00:30:32.586Z,62.80
2022-10-06T00:33:01.052Z,62.90
2022-10-06T00:35:29.205Z,63.00
2022-10-06T00:37:56.124Z,63.00
2022-10-06T00:40:23.149Z,62.90
2022-10-06T00:42:54.650Z,63.00
2022-10-06T00:45:24.017Z,63.00
2022-10-06T00:47:50.925Z,62.90
2022-10-06T00:50:20.232Z,63.10
2022-10-06T00:52:47.266Z,63.40
2022-10-06T00:55:14.416Z,63.50
2022-10-06T00:57:41.430Z,63.60
2022-10-06T01:00:08.683Z,63.60
2022-10-06T01:02:42.983Z,63.60
2022-10-06T01:05:10.191Z,63.70
2022-10-06T01:07:37.052Z,64.20
2022-10-06T01:10:04.707Z,64.40
2022-10-06T01:12:31.657Z,64.50
2022-10-06T01:14:58.599Z,64.40
2022-10-06T01:17:29.831Z,64.40
2022-10-06T01:20:01.801Z,64.60
2022-10-06T01:22:33.153Z,65.10
2022-10-06T01:25:00.087Z,65.10
2022-10-06T01:27:27.283Z,65.30
2022-10-06T01:29:56.310Z,65.20
2022-10-06T01:32:23.319Z,65.40
2022-10-06T01:34:50.130Z,65.50
2022-10-06T01:37:17.002Z,65.70
2022-10-06T01:39:43.843Z,66.10
2022-10-06T01:42:11.063Z,66.30
2022-10-06T01:44:38.010Z,66.40
2022-10-06T01:47:05.471Z,66.30
2022-10-06T01:49:32.309Z,67.00
2022-10-06T01:52:01.989Z,67.00
2022-10-06T01:54:28.835Z,66.80
2022-10-06T01:56:55.765Z,66.50
2022-10-06T01:59:22.934Z,66.50
2022-10-06T02:01:49.796Z,66.50
2022-10-06T02:04:16.777Z,66.50
2022-10-06T02:06:43.830Z,66.60
2022-10-06T02:09:10.781Z,66.70
2022-10-06T02:11:38.277Z,66.80
2022-10-06T02:14:05.309Z,66.70
2022-10-06T02:16:32.554Z,66.40
2022-10-06T02:18:59.358Z,66.20
2022-10-06T02:21:26.274Z,66.00
2022-10-06T02:23:53.186Z,66.20
2022-10-06T02:26:20.059Z,65.90
2022-10-06T02:28:47.121Z,65.80
2022-10-06T02:31:14.158Z,66.00
2022-10-06T02:33:41.077Z,66.00
2022-10-06T02:36:08.152Z,65.70
2022-10-06T02:38:35.037Z,65.70
2022-10-06T02:41:02.247Z,65.90
2022-10-06T02:43:30.235Z,66.00
2022-10-06T02:46:17.351Z,66.10
2022-10-06T02:48:44.311Z,66.20
2022-10-06T02:51:12.620Z,66.20
2022-10-06T02:53:40.232Z,66.10
2022-10-06T02:56:16.227Z,66.60
2022-10-06T02:58:43.744Z,66.60
2022-10-06T03:01:11.533Z,66.70
2022-10-06T03:03:38.609Z,66.60
2022-10-06T03:06:06.513Z,66.40
2022-10-06T03:08:33.511Z,66.50
2022-10-06T03:11:01.381Z,66.30
2022-10-06T03:13:28.261Z,66.40
2022-10-06T03:15:55.100Z,66.20
2022-10-06T03:18:22.630Z,66.20
2022-10-06T03:20:49.686Z,66.00
2022-10-06T03:23:16.703Z,65.80
2022-10-06T03:25:44.198Z,65.80
2022-10-06T03:28:11.100Z,66.10
2022-10-06T03:30:37.992Z,66.00
2022-10-06T03:33:04.837Z,66.00
2022-10-06T03:35:31.708Z,66.10
2022-10-06T03:37:59.031Z,65.80
2022-10-06T03:40:25.891Z,65.80
2022-10-06T03:42:52.769Z,66.20
2022-10-06T03:45:19.581Z,66.30
2022-10-06T03:47:46.433Z,66.30
2022-10-06T03:50:13.236Z,66.20
2022-10-06T03:52:40.066Z,66.40
2022-10-06T03:55:07.010Z,66.60
2022-10-06T03:57:33.834Z,66.50
2022-10-06T04:00:00.793Z,66.20
2022-10-06T04:02:27.759Z,66.10
2022-10-06T04:04:56.007Z,66.10
2022-10-06T04:07:22.835Z,65.70
2022-10-06T04:09:49.707Z,65.80
2022-10-06T04:12:17.079Z,65.80
2022-10-06T04:14:43.895Z,65.90
2022-10-06T04:17:10.819Z,65.70
2022-10-06T04:19:38.301Z,65.80
2022-10-06T04:22:05.202Z,65.60
2022-10-06T04:24:32.100Z,66.60
2022-10-06T04:27:17.543Z,66.50
2022-10-06T04:29:45.770Z,66.80
2022-10-06T04:32:20.058Z,66.80
2022-10-06T04:34:46.923Z,66.80
2022-10-06T04:37:17.997Z,66.40
2022-10-06T04:39:48.100Z,66.20
2022-10-06T04:42:15.110Z,66.00
2022-10-06T04:44:41.967Z,65.90
2022-10-06T04:47:11.849Z,66.10
2022-10-06T04:49:38.855Z,66.30
2022-10-06T04:52:05.895Z,66.40
2022-10-06T04:54:33.897Z,66.30
2022-10-06T04:57:01.016Z,66.30
2022-10-06T04:59:47.922Z,66.60
2022-10-06T05:02:15.302Z,66.60
2022-10-06T05:04:42.453Z,66.40
2022-10-06T05:07:09.355Z,66.20
2022-10-06T05:09:36.209Z,66.20
2022-10-06T05:12:03.298Z,66.30
2022-10-06T05:14:30.146Z,66.30
2022-10-06T05:16:57.178Z,66.40
2022-10-06T05:19:24.144Z,66.20
2022-10-06T05:21:52.264Z,66.10
2022-10-06T05:24:19.142Z,66.10
2022-10-06T05:26:46.113Z,65.90
2022-10-06T05:29:12.931Z,65.70
2022-10-06T05:31:41.373Z,65.30
2022-10-06T05:34:11.259Z,65.40
2022-10-06T05:36:38.108Z,65.20
2022-10-06T05:39:05.348Z,64.90
2022-10-06T05:41:32.819Z,64.70
2022-10-06T05:43:59.759Z,64.70
2022-10-06T05:46:30.651Z,64.60
2022-10-06T05:48:58.143Z,64.50
2022-10-06T05:51:30.337Z,64.20
2022-10-06T05:53:57.930Z,64.30
2022-10-06T05:56:25.506Z,63.90
2022-10-06T05:58:54.554Z,63.80
2022-10-06T06:01:31.642Z,63.30
2022-10-06T06:04:03.273Z,63.00
2022-10-06T06:06:33.670Z,62.40
2022-10-06T06:09:01.225Z,61.90
2022-10-06T06:11:30.173Z,61.40
2022-10-06T06:13:57.256Z,61.00
2022-10-06T06:16:25.857Z,60.60
2022-10-06T06:18:53.037Z,60.00
2022-10-06T06:21:19.990Z,59.50
2022-10-06T06:23:47.305Z,59.50
2022-10-06T06:26:15.589Z,59.20
2022-10-06T06:28:43.301Z,59.20
2022-10-06T06:31:14.081Z,58.90
2022-10-06T06:33:43.517Z,58.40
2022-10-06T06:36:21.044Z,57.30
2022-10-06T06:38:49.937Z,56.30
2022-10-06T06:41:17.396Z,55.20
2022-10-06T06:43:44.668Z,54.00
2022-10-06T06:46:12.303Z,52.30
2022-10-06T06:48:39.587Z,50.80
2022-10-06T06:51:07.552Z,49.60
2022-10-06T06:53:34.817Z,48.40
2022-10-06T06:56:01.774Z,47.40
2022-10-06T06:58:29.024Z,46.50
2022-10-06T07:01:04.439Z,45.70
2022-10-06T07:03:56.162Z,44.30
2022-10-06T07:06:18.406Z,42.60
2022-10-06T07:08:46.144Z,40.90
2022-10-06T07:11:17.492Z,39.70
2022-10-06T07:13:44.670Z,38.60
2022-10-06T07:16:30.930Z,37.80
2022-10-06T07:19:19.086Z,37.30
2022-10-06T07:22:39.432Z,37.00
2022-10-06T07:25:12.534Z,36.30
2022-10-06T07:27:43.605Z,35.90
2022-10-06T07:30:11.785Z,35.00
2022-10-06T07:32:38.732Z,34.80
2022-10-06T07:35:06.695Z,34.60
2022-10-06T07:37:35.083Z,34.50
2022-10-06T07:40:04.371Z,33.90
2022-10-06T07:42:31.431Z,33.10
2022-10-06T07:45:17.192Z,32.60
2022-10-06T07:47:44.222Z,32.20
2022-10-06T07:50:13.148Z,32.10
2022-10-06T07:52:43.103Z,31.70
2022-10-06T07:55:10.618Z,31.10
2022-10-06T07:57:38.003Z,30.80
2022-10-06T08:00:07.865Z,30.50
2022-10-06T08:02:36.094Z,30.20
2022-10-06T08:05:04.034Z,29.90
2022-10-06T08:07:31.163Z,29.60
2022-10-06T08:09:58.834Z,29.60
2022-10-06T08:12:34.898Z,29.70
2022-10-06T08:15:06.966Z,29.60
2022-10-06T08:17:40.013Z,29.30
2022-10-06T08:20:08.339Z,28.70
2022-10-06T08:22:36.409Z,28.20
2022-10-06T08:25:07.162Z,27.80
2022-10-06T08:27:35.645Z,27.80
2022-10-06T08:30:03.259Z,27.70
2022-10-06T08:32:30.443Z,27.30
2022-10-06T08:34:59.583Z,27.10
2022-10-06T08:37:27.559Z,27.00
2022-10-06T08:39:54.992Z,26.50
2022-10-06T08:42:32.346Z,26.20
2022-10-06T08:45:00.199Z,26.50
2022-10-06T08:47:31.147Z,26.50
2022-10-06T08:49:58.698Z,26.50
2022-10-06T08:52:46.471Z,27.10
2022-10-06T08:55:16.503Z,27.00
2022-10-06T08:58:01.834Z,27.20
2022-10-06T09:00:33.509Z,27.30
2022-10-06T09:03:00.958Z,27.20
2022-10-06T09:05:29.589Z,26.80
2022-10-06T09:08:15.322Z,27.00
2022-10-06T09:10:45.002Z,26.80
2022-10-06T09:13:22.064Z,26.80
2022-10-06T09:16:09.545Z,26.50
2022-10-06T09:19:07.213Z,26.70
2022-10-06T09:21:36.890Z,26.60
2022-10-06T09:24:07.824Z,26.70
2022-10-06T09:26:34.731Z,26.20
2022-10-06T09:29:01.626Z,26.20
2022-10-06T09:31:29.557Z,25.60
2022-10-06T09:33:59.545Z,25.50
2022-10-06T09:36:26.404Z,26.10
2022-10-06T09:38:57.622Z,25.80
2022-10-06T09:41:24.544Z,25.70
2022-10-06T09:43:53.516Z,25.40
2022-10-06T09:46:21.571Z,25.40
2022-10-06T09:48:48.443Z,25.60
2022-10-06T09:51:18.589Z,25.20
2022-10-06T09:54:03.136Z,25.60
2022-10-06T09:56:30.033Z,24.90
2022-10-06T09:58:57.652Z,24.20
2022-10-06T10:01:28.414Z,23.60
2022-10-06T10:04:21.119Z,24.00
2022-10-06T10:06:51.048Z,23.80
2022-10-06T10:09:22.579Z,23.80
2022-10-06T10:12:27.432Z,24.00
2022-10-06T10:15:09.073Z,23.90
2022-10-06T10:17:39.161Z,23.60
2022-10-06T10:20:08.691Z,23.80
2022-10-06T10:22:41.760Z,23.90
2022-10-06T10:25:20.494Z,24.50
2022-10-06T10:28:06.311Z,24.10
2022-10-06T10:30:33.813Z,24.50
2022-10-06T10:33:03.723Z,24.60
2022-10-06T10:35:30.959Z,24.30
2022-10-06T10:38:14.444Z,24.40
2022-10-06T10:40:44.246Z,24.50
2022-10-06T10:43:30.369Z,24.50
2022-10-06T10:45:57.247Z,24.20
2022-10-06T10:48:34.309Z,23.60
2022-10-06T10:51:01.361Z,23.60
2022-10-06T10:53:28.853Z,23.30
2022-10-06T10:55:56.058Z,22.90
2022-10-06T10:58:24.348Z,23.50
2022-10-06T11:00:52.670Z,23.30
2022-10-06T11:03:19.751Z,23.20
2022-10-06T11:05:59.034Z,23.30
2022-10-06T11:47:59.471Z,22.90
2022-10-06T11:50:33.839Z,22.80
2022-10-06T11:53:00.979Z,22.70
2022-10-06T11:55:29.211Z,22.70
2022-10-06T11:58:08.648Z,22.60
2022-10-06T12:00:40.768Z,22.70
2022-10-06T12:03:26.376Z,22.90
2022-10-06T12:05:57.247Z,23.20
2022-10-06T12:08:36.922Z,23.50
2022-10-06T12:11:03.845Z,23.40
2022-10-06T12:14:44.604Z,23.00
2022-10-06T12:19:26.186Z,22.90
2022-10-06T12:22:03.570Z,23.10
2022-10-06T12:24:43.141Z,23.40
2022-10-06T12:27:27.115Z,23.70
2022-10-06T12:30:14.180Z,24.20
2022-10-06T12:32:53.405Z,24.40
2022-10-06T12:35:33.346Z,23.80
2022-10-06T12:38:05.279Z,24.10
2022-10-06T12:40:48.456Z,23.90
2022-10-06T12:43:18.464Z,23.90
2022-10-06T12:45:51.462Z,23.90
2022-10-06T12:48:31.375Z,23.60
2022-10-06T12:51:06.431Z,23.30
2022-10-06T12:53:37.000Z,23.70
2022-10-06T12:56:04.273Z,23.60
2022-10-06T12:58:32.581Z,23.80
2022-10-06T13:01:02.458Z,23.70
2022-10-06T13:03:29.575Z,23.60
2022-10-06T13:05:57.716Z,23.20
2022-10-06T13:08:28.423Z,23.50
2022-10-06T13:11:39.601Z,23.70
2022-10-06T13:14:26.770Z,23.50
2022-10-06T13:16:53.634Z,24.00
2022-10-06T13:19:24.452Z,24.40
2022-10-06T13:21:51.580Z,24.10
2022-10-06T13:24:26.303Z,24.10
2022-10-06T13:26:53.512Z,23.90
2022-10-06T13:29:24.422Z,24.20
2022-10-06T13:31:53.136Z,24.30
2022-10-06T13:34:33.289Z,24.30
2022-10-06T13:37:00.339Z,24.70
2022-10-06T13:39:32.065Z,24.80
2022-10-06T13:42:03.692Z,24.90
2022-10-06T13:44:33.172Z,24.50
2022-10-06T13:47:01.883Z,24.90
2022-10-06T13:49:57.622Z,24.60
2022-10-06T13:52:40.706Z,24.40
2022-10-06T13:55:34.357Z,24.20
2022-10-06T13:58:06.744Z,24.50
2022-10-06T14:00:45.843Z,24.70
2022-10-06T14:03:38.791Z,24.70
2022-10-06T14:06:09.473Z,24.70
2022-10-06T14:08:36.515Z,24.70
2022-10-06T14:11:04.635Z,24.80
2022-10-06T14:13:52.059Z,25.90
2022-10-06T14:16:24.352Z,25.60
2022-10-06T14:18:59.210Z,25.90
2022-10-06T14:21:32.808Z,26.40
2022-10-06T14:24:06.208Z,26.50
2022-10-06T14:29:20.214Z,27.20
2022-10-06T14:31:47.569Z,27.40
2022-10-06T14:34:18.504Z,28.10
2022-10-06T14:36:48.285Z,28.60
2022-10-06T14:39:15.713Z,28.80
2022-10-06T14:41:43.091Z,29.30
2022-10-06T14:44:11.571Z,30.20
2022-10-06T14:46:39.288Z,30.60
2022-10-06T14:49:07.797Z,31.30
2022-10-06T14:51:36.912Z,31.60
2022-10-06T14:54:05.008Z,32.70
2022-10-06T14:56:32.716Z,32.70
2022-10-06T14:59:05.253Z,32.60
2022-10-06T15:01:33.509Z,33.20
2022-10-06T15:04:01.450Z,32.20
2022-10-06T15:06:47.090Z,32.70
2022-10-06T15:09:14.052Z,33.00
2022-10-06T15:11:41.074Z,33.00
2022-10-06T15:14:11.010Z,33.90
2022-10-06T15:16:40.842Z,34.10
2022-10-06T15:19:08.126Z,34.10
2022-10-06T15:21:35.762Z,35.00
2022-10-06T15:24:03.364Z,35.60
2022-10-06T15:26:49.330Z,35.90
2022-10-06T15:29:16.351Z,36.10
2022-10-06T15:31:44.220Z,36.50
2022-10-06T15:34:12.357Z,36.90
2022-10-06T15:36:42.073Z,36.80
2022-10-06T15:39:09.593Z,37.10
2022-10-06T15:41:36.937Z,37.40
2022-10-06T15:44:04.189Z,37.60
2022-10-06T15:46:35.323Z,37.90
2022-10-06T15:49:04.111Z,38.30
2022-10-06T15:51:32.238Z,38.90
2022-10-06T15:53:59.240Z,38.60
2022-10-06T15:56:26.971Z,39.20
2022-10-06T15:58:54.039Z,39.90
2022-10-06T16:01:32.073Z,39.80
2022-10-06T16:04:00.838Z,40.60
2022-10-06T16:06:46.538Z,41.60
2022-10-06T16:09:13.520Z,41.80
2022-10-06T16:11:40.630Z,42.20
2022-10-06T16:14:08.149Z,42.80
2022-10-06T16:16:37.784Z,43.10
2022-10-06T16:19:06.972Z,43.40
2022-10-06T16:21:33.913Z,43.80
2022-10-06T16:24:00.978Z,44.20
2022-10-06T16:26:28.332Z,44.40
2022-10-06T16:28:55.356Z,44.70
2022-10-06T16:31:22.424Z,44.90
2022-10-06T16:33:49.572Z,45.10
2022-10-06T16:36:16.781Z,45.40
2022-10-06T16:38:43.713Z,45.70
2022-10-06T16:41:10.642Z,45.80
2022-10-06T16:43:38.963Z,46.00
2022-10-06T16:46:06.949Z,46.20
2022-10-06T16:48:40.823Z,46.90
2022-10-06T16:51:36.906Z,47.30
2022-10-06T16:54:04.900Z,47.50
2022-10-06T16:56:37.738Z,48.00
2022-10-06T16:59:06.834Z,47.70
2022-10-06T17:01:34.863Z,48.00
2022-10-06T17:04:03.574Z,48.50
2022-10-06T17:06:30.872Z,48.60
2022-10-06T17:08:57.872Z,49.10
2022-10-06T17:11:25.739Z,49.10
2022-10-06T17:13:53.599Z,49.10
2022-10-06T17:16:21.943Z,49.20
2022-10-06T17:18:50.339Z,49.40
2022-10-06T17:21:43.141Z,49.50
2022-10-06T17:24:04.658Z,49.60
2022-10-06T17:26:32.499Z,49.90
2022-10-06T17:29:00.377Z,50.20
2022-10-06T17:31:35.881Z,50.20
2022-10-06T17:34:12.154Z,50.10
2022-10-06T17:36:39.830Z,50.40
2022-10-06T17:39:08.288Z,50.60
2022-10-06T17:41:36.066Z,50.20
2022-10-06T17:44:08.767Z,50.60
2022-10-06T17:46:48.407Z,50.90
2022-10-06T17:49:16.764Z,50.80
2022-10-06T17:51:46.359Z,51.20
2022-10-06T17:54:16.385Z,51.60
2022-10-06T17:56:43.684Z,51.60
2022-10-06T17:59:19.740Z,51.60
2022-10-06T18:01:46.773Z,51.70
2022-10-06T18:04:35.660Z,51.90
2022-10-06T18:07:06.810Z,52.30
2022-10-06T18:09:33.931Z,52.50
2022-10-06T18:12:02.869Z,52.80
2022-10-06T18:14:32.491Z,53.10
2022-10-06T18:17:43.503Z,53.00
2022-10-06T18:20:10.519Z,53.20
2022-10-06T18:22:37.622Z,53.10
2022-10-06T18:25:04.757Z,53.30
2022-10-06T18:27:33.510Z,53.60
2022-10-06T18:30:00.599Z,53.70
2022-10-06T18:33:56.423Z,53.80
2022-10-06T18:38:52.631Z,53.90
2022-10-06T18:41:45.171Z,54.10
2022-10-06T18:44:12.048Z,54.10
2022-10-06T18:46:57.607Z,54.10
2022-10-06T18:49:25.028Z,54.20
2022-10-06T18:51:58.094Z,54.30
2022-10-06T18:54:29.447Z,54.30
2022-10-06T18:56:56.548Z,54.40
2022-10-06T18:59:29.540Z,54.80
2022-10-06T19:02:00.835Z,55.00
2022-10-06T19:04:27.750Z,55.10
2022-10-06T19:06:55.103Z,55.30
2022-10-06T19:09:22.655Z,55.20
2022-10-06T19:11:51.335Z,55.30
2022-10-06T19:14:27.732Z,55.70
2022-10-06T19:16:59.332Z,55.90
2022-10-06T19:19:26.932Z,56.10
2022-10-06T19:22:03.253Z,56.40
2022-10-06T19:24:31.511Z,56.30
2022-10-06T19:26:59.014Z,56.40
2022-10-06T19:29:27.613Z,56.40
2022-10-06T19:31:57.813Z,56.50
2022-10-06T19:34:24.916Z,56.70
2022-10-06T19:36:53.233Z,57.00
2022-10-06T19:39:24.586Z,57.30
2022-10-06T19:42:10.243Z,57.40
2022-10-06T19:44:43.195Z,57.40
2022-10-06T19:47:11.055Z,57.60
2022-10-06T19:49:38.410Z,57.40
2022-10-06T19:52:06.348Z,57.80
2022-10-06T19:54:33.675Z,58.00
2022-10-06T19:57:05.211Z,58.30
2022-10-06T19:59:36.358Z,58.40
2022-10-06T20:02:03.711Z,58.40
2022-10-06T20:04:58.733Z,58.40
2022-10-06T20:07:28.059Z,58.40
2022-10-06T20:09:55.518Z,58.60
2022-10-06T20:12:33.825Z,58.60
2022-10-06T20:15:00.956Z,58.60
2022-10-06T20:18:09.552Z,58.70
2022-10-06T20:20:37.019Z,58.90
2022-10-06T20:23:04.294Z,58.90
2022-10-06T20:25:31.828Z,59.00
2022-10-06T20:27:58.714Z,59.10
2022-10-06T20:30:25.793Z,59.20
2022-10-06T20:32:53.771Z,59.40
2022-10-06T20:35:20.784Z,59.30
2022-10-06T20:37:47.796Z,59.40
2022-10-06T20:40:33.430Z,59.60
2022-10-06T20:43:48.848Z,59.60
2022-10-06T20:46:15.887Z,60.20
2022-10-06T20:48:42.921Z,59.80
2022-10-06T20:51:10.831Z,59.90
2022-10-06T20:53:37.830Z,60.20
2022-10-06T20:56:06.028Z,60.30
2022-10-06T20:58:35.421Z,60.40
2022-10-06T21:01:03.355Z,60.50
2022-10-06T21:03:30.696Z,60.40
2022-10-06T21:06:00.400Z,60.40
2022-10-06T21:08:27.917Z,60.60
2022-10-06T21:10:58.393Z,60.80
2022-10-06T21:13:25.496Z,60.70
2022-10-06T21:15:52.571Z,60.70
2022-10-06T21:18:19.587Z,60.80
2022-10-06T21:20:54.530Z,60.80
2022-10-06T21:23:21.506Z,60.80
2022-10-06T21:25:48.750Z,60.80
2022-10-06T21:28:16.322Z,61.00
2022-10-06T21:30:44.577Z,61.20
2022-10-06T21:33:11.814Z,61.60
2022-10-06T21:35:39.318Z,61.70
2022-10-06T21:38:07.635Z,61.80
2022-10-06T21:40:36.012Z,61.60
2022-10-06T21:43:04.139Z,61.70
2022-10-06T21:45:33.151Z,61.70
2022-10-06T21:48:02.864Z,61.80
2022-10-06T21:50:30.067Z,62.00
2022-10-06T21:52:57.098Z,62.00
2022-10-06T21:55:24.185Z,62.00
2022-10-06T21:57:51.509Z,62.00
2022-10-06T22:00:21.730Z,62.10
2022-10-06T22:02:49.017Z,62.00
2022-10-06T22:05:18.076Z,61.90
2022-10-06T22:07:46.692Z,62.00
2022-10-06T22:10:13.924Z,62.30
2022-10-06T22:12:40.851Z,62.20
2022-10-06T22:15:07.873Z,62.20
2022-10-06T22:17:34.863Z,62.20
2022-10-06T22:20:01.811Z,62.10
2022-10-06T22:22:29.034Z,62.00
2022-10-06T22:24:57.730Z,61.90
2022-10-06T22:27:25.472Z,62.10
2022-10-06T22:29:52.484Z,62.10
2022-10-06T22:32:19.874Z,62.10
2022-10-06T22:34:46.830Z,62.10
2022-10-06T22:37:13.922Z,62.30
2022-10-06T22:39:40.853Z,63.30
2022-10-06T22:42:07.769Z,62.50
2022-10-06T22:44:34.749Z,62.50
2022-10-06T22:47:01.746Z,62.40
2022-10-06T22:49:28.763Z,62.40
2022-10-06T22:51:55.734Z,62.40
2022-10-06T22:54:22.770Z,62.40
2022-10-06T22:56:49.795Z,62.60
2022-10-06T22:59:16.846Z,62.80
2022-10-06T23:01:43.821Z,62.90
2022-10-06T23:04:10.759Z,62.90
2022-10-06T23:06:38.025Z,63.00
2022-10-06T23:09:05.109Z,63.00
2022-10-06T23:11:32.157Z,63.10
2022-10-06T23:14:00.485Z,63.20
2022-10-06T23:16:27.623Z,63.30
2022-10-06T23:18:55.290Z,63.50
2022-10-06T23:21:23.005Z,63.60
2022-10-06T23:23:56.940Z,63.50
2022-10-06T23:26:24.154Z,63.40
2022-10-06T23:28:52.000Z,63.40
2022-10-06T23:31:19.357Z,63.50
2022-10-06T23:33:46.588Z,63.50
2022-10-06T23:36:18.002Z,63.50
2022-10-06T23:38:45.638Z,63.50
2022-10-06T23:41:12.603Z,63.50
2022-10-06T23:43:42.399Z,63.50
2022-10-06T23:46:09.385Z,63.50
2022-10-06T23:48:36.465Z,63.50
2022-10-06T23:51:07.640Z,63.70
2022-10-06T23:53:34.612Z,63.80
2022-10-06T23:56:01.497Z,63.80
2022-10-06T23:58:28.554Z,63.80
